Time;durP1;ratioP1;P1;durP2;ratioP2;P2;SDS_P1;SDS_P2;PMS_P1;PMS_P2;Temp;Humidity;BMP_temperature;BMP_pressure;BME280_temperature;BME280_humidity;BME280_pressure;Samples;Min_cycle;Max_cycle;Signal;HPM_P1;HPM_P2
2024/02/19 00:00:24;;;;;;;5.10;2.42;;;;;;;;;;7409446;19;19974;-84
2024/02/19 00:03:11;;;;;;;3.72;2.20;;;;;;;;;;7406272;19;19982;-84
2024/02/19 00:05:55;;;;;;;3.03;2.10;;;;;;;;;;7408070;19;19930;-84
2024/02/19 00:08:42;;;;;;;5.28;3.00;;;;;;;;;;7407043;19;19914;-84
2024/02/19 00:11:31;;;;;;;4.35;2.13;;;;;;;;;;7406124;19;20330;-84
2024/02/19 00:14:16;;;;;;;4.50;2.30;;;;;;;;;;7403815;19;19918;-84
2024/02/19 00:17:00;;;;;;;3.38;2.25;;;;;;;;;;7411866;19;19937;-84
2024/02/19 00:19:47;;;;;;;5.10;2.35;;;;;;;;;;7408433;19;20272;-83
2024/02/19 00:22:33;;;;;;;3.38;2.13;;;;;;;;;;7409048;19;19923;-84
2024/02/19 00:25:20;;;;;;;3.28;1.95;;;;;;;;;;7409118;19;19923;-84
2024/02/19 00:28:09;;;;;;;3.95;2.08;;;;;;;;;;7406251;19;19921;-84
2024/02/19 00:30:54;;;;;;;3.25;2.10;;;;;;;;;;7410531;19;19918;-84
2024/02/19 00:33:41;;;;;;;4.32;2.08;;;;;;;;;;7409013;19;19927;-84
2024/02/19 00:36:27;;;;;;;3.70;2.28;;;;;;;;;;7409595;19;19918;-84
2024/02/19 00:39:12;;;;;;;3.90;1.80;;;;;;;;;;7408246;19;20333;-83
2024/02/19 00:41:59;;;;;;;3.17;1.92;;;;;;;;;;7409621;19;19911;-83
2024/02/19 00:44:48;;;;;;;2.55;1.90;;;;;;;;;;7409479;19;20271;-83
2024/02/19 00:47:32;;;;;;;3.22;2.03;;;;;;;;;;7408956;19;20266;-83
2024/02/19 00:50:17;;;;;;;3.13;2.05;;;;;;;;;;7409788;19;19914;-83
2024/02/19 00:53:01;;;;;;;3.40;2.00;;;;;;;;;;7410971;19;19982;-84
2024/02/19 00:55:45;;;;;;;2.72;1.70;;;;;;;;;;7409611;19;19942;-84
2024/02/19 00:58:29;;;;;;;3.95;1.70;;;;;;;;;;7410047;19;19935;-84
2024/02/19 01:01:19;;;;;;;2.78;1.92;;;;;;;;;;7409810;19;19914;-84
2024/02/19 01:04:03;;;;;;;4.00;2.10;;;;;;;;;;7409709;19;20380;-83
2024/02/19 01:06:47;;;;;;;3.22;2.13;;;;;;;;;;7408417;19;20242;-83
2024/02/19 01:09:39;;;;;;;4.60;2.33;;;;;;;;;;7409259;19;19944;-84
2024/02/19 01:12:24;;;;;;;3.30;2.10;;;;;;;;;;7408405;19;19918;-84
2024/02/19 01:15:09;;;;;;;4.03;2.20;;;;;;;;;;7409479;19;20348;-84
2024/02/19 01:17:56;;;;;;;4.00;2.22;;;;;;;;;;7403616;19;19922;-84
2024/02/19 01:20:43;;;;;;;4.75;2.55;;;;;;;;;;7409029;19;20272;-84
2024/02/19 01:23:28;;;;;;;4.28;2.53;;;;;;;;;;7413746;19;20004;-84
2024/02/19 01:26:12;;;;;;;5.35;2.50;;;;;;;;;;7415335;19;19935;-84
2024/02/19 01:29:01;;;;;;;4.70;2.13;;;;;;;;;;7414261;19;19926;-84
2024/02/19 01:31:47;;;;;;;5.07;2.70;;;;;;;;;;7413819;19;19923;-84
2024/02/19 01:34:39;;;;;;;3.40;2.67;;;;;;;;;;7416604;19;19915;-84
2024/02/19 01:37:23;;;;;;;4.25;2.67;;;;;;;;;;7413570;19;19945;-84
2024/02/19 01:40:12;;;;;;;4.72;2.70;;;;;;;;;;7415363;19;19918;-84
2024/02/19 01:43:06;;;;;;;5.93;3.08;;;;;;;;;;7418522;19;20325;-84
2024/02/19 01:45:52;;;;;;;4.20;2.75;;;;;;;;;;7415555;19;19930;-84
2024/02/19 01:48:40;;;;;;;3.63;2.30;;;;;;;;;;7412197;19;19919;-84
2024/02/19 01:51:32;;;;;;;4.15;2.80;;;;;;;;;;7414623;19;19929;-84
2024/02/19 01:54:17;;;;;;;4.22;2.88;;;;;;;;;;7415983;19;19918;-83
2024/02/19 01:57:01;;;;;;;4.70;3.10;;;;;;;;;;7413922;19;19918;-84
2024/02/19 01:59:47;;;;;;;3.85;2.47;;;;;;;;;;7413302;19;19919;-84
2024/02/19 02:02:31;;;;;;;6.53;3.50;;;;;;;;;;7415398;19;19923;-83
2024/02/19 02:05:20;;;;;;;5.18;3.35;;;;;;;;;;7416030;19;19906;-84
2024/02/19 02:08:10;;;;;;;5.43;3.42;;;;;;;;;;7445963;19;19917;-83
2024/02/19 02:10:54;;;;;;;5.32;3.35;;;;;;;;;;7441706;19;19978;-83
2024/02/19 02:13:38;;;;;;;5.90;3.80;;;;;;;;;;7415117;19;19918;-83
2024/02/19 02:16:29;;;;;;;4.97;3.17;;;;;;;;;;7412801;19;20367;-83
2024/02/19 02:19:15;;;;;;;6.47;3.38;;;;;;;;;;7413276;19;19986;-84
2024/02/19 02:22:00;;;;;;;6.03;3.40;;;;;;;;;;7413380;19;19915;-84
2024/02/19 02:24:50;;;;;;;4.47;3.20;;;;;;;;;;7415836;19;19910;-83
2024/02/19 02:27:39;;;;;;;5.07;2.97;;;;;;;;;;7410803;19;19919;-84
2024/02/19 02:30:29;;;;;;;6.00;3.50;;;;;;;;;;7412077;19;19941;-84
2024/02/19 02:33:15;;;;;;;8.20;3.28;;;;;;;;;;7412373;19;20257;-84
2024/02/19 02:36:02;;;;;;;5.35;3.00;;;;;;;;;;7414013;19;20333;-84
2024/02/19 02:38:48;;;;;;;4.72;2.47;;;;;;;;;;7411034;19;19915;-84
2024/02/19 02:41:32;;;;;;;4.30;2.85;;;;;;;;;;7409953;19;20010;-84
2024/02/19 02:44:21;;;;;;;4.20;2.08;;;;;;;;;;7414042;19;19922;-84
2024/02/19 02:47:06;;;;;;;4.03;2.40;;;;;;;;;;7412613;19;19911;-83
2024/02/19 02:49:50;;;;;;;3.78;2.42;;;;;;;;;;7414320;19;20043;-83
2024/02/19 02:52:36;;;;;;;4.78;2.58;;;;;;;;;;7415424;19;19929;-84
2024/02/19 02:55:23;;;;;;;4.13;2.70;;;;;;;;;;7414036;19;19926;-84
2024/02/19 02:58:11;;;;;;;4.60;2.92;;;;;;;;;;7414036;19;19930;-84
2024/02/19 03:01:00;;;;;;;4.05;2.45;;;;;;;;;;7411833;19;19914;-83
2024/02/19 03:03:47;;;;;;;4.43;2.40;;;;;;;;;;7413127;19;20265;-83
2024/02/19 03:06:34;;;;;;;4.93;2.72;;;;;;;;;;7412774;19;19929;-84
2024/02/19 03:09:18;;;;;;;5.35;2.85;;;;;;;;;;7414134;19;19930;-84
2024/02/19 03:12:02;;;;;;;4.80;3.15;;;;;;;;;;7414285;19;19978;-84
2024/02/19 03:14:49;;;;;;;5.05;2.95;;;;;;;;;;7415190;19;19915;-84
2024/02/19 03:17:36;;;;;;;5.45;2.83;;;;;;;;;;7412465;19;19918;-84
2024/02/19 03:20:23;;;;;;;6.40;3.13;;;;;;;;;;7413716;19;19919;-84
2024/02/19 03:23:09;;;;;;;5.93;2.85;;;;;;;;;;7414154;19;19928;-84
2024/02/19 03:25:56;;;;;;;4.85;2.65;;;;;;;;;;7416072;19;19919;-84
2024/02/19 03:28:42;;;;;;;5.95;3.05;;;;;;;;;;7415411;19;19914;-84
2024/02/19 03:31:27;;;;;;;6.15;3.47;;;;;;;;;;7445403;19;19934;-84
2024/02/19 03:34:16;;;;;;;5.63;3.55;;;;;;;;;;7447521;19;19938;-84
2024/02/19 03:37:05;;;;;;;4.70;3.13;;;;;;;;;;7445793;19;19915;-83
2024/02/19 03:39:52;;;;;;;5.43;2.83;;;;;;;;;;7444994;19;19929;-83
2024/02/19 03:42:36;;;;;;;6.53;3.00;;;;;;;;;;7439511;19;19955;-83
2024/02/19 03:45:29;;;;;;;5.00;3.50;;;;;;;;;;7438055;19;19965;-83
2024/02/19 03:48:15;;;;;;;7.45;3.58;;;;;;;;;;7407434;19;19911;-84
2024/02/19 03:51:02;;;;;;;5.25;3.00;;;;;;;;;;7408862;19;19926;-84
2024/02/19 03:53:51;;;;;;;5.18;3.17;;;;;;;;;;7407622;19;20276;-83
2024/02/19 03:56:40;;;;;;;5.28;3.05;;;;;;;;;;7410002;19;20265;-83
2024/02/19 03:59:25;;;;;;;7.53;3.05;;;;;;;;;;7411667;19;19932;-83
2024/02/19 04:02:11;;;;;;;6.75;2.75;;;;;;;;;;7410872;19;20350;-84
2024/02/19 04:04:58;;;;;;;6.28;2.85;;;;;;;;;;7412218;19;19927;-84
2024/02/19 04:07:47;;;;;;;5.13;2.85;;;;;;;;;;7413796;19;19927;-83
2024/02/19 04:10:34;;;;;;;5.40;3.35;;;;;;;;;;7410827;19;19922;-83
2024/02/19 04:13:20;;;;;;;7.13;3.35;;;;;;;;;;7411311;19;19922;-83
2024/02/19 04:16:10;;;;;;;4.50;2.92;;;;;;;;;;7409962;19;19923;-83
2024/02/19 04:18:54;;;;;;;6.60;3.80;;;;;;;;;;7413612;19;19918;-83
2024/02/19 04:21:45;;;;;;;4.90;3.13;;;;;;;;;;7417422;19;20296;-83
2024/02/19 04:24:35;;;;;;;5.78;3.30;;;;;;;;;;7447270;19;19922;-83
2024/02/19 04:27:22;;;;;;;5.47;3.40;;;;;;;;;;7430447;19;19918;-84
2024/02/19 04:30:07;;;;;;;6.03;3.40;;;;;;;;;;7410428;19;19922;-84
2024/02/19 04:32:51;;;;;;;4.20;2.63;;;;;;;;;;7411794;19;19940;-84
2024/02/19 04:35:38;;;;;;;5.53;2.92;;;;;;;;;;7408643;19;19927;-83
2024/02/19 04:38:22;;;;;;;6.10;2.97;;;;;;;;;;7410600;19;19919;-83
2024/02/19 04:41:11;;;;;;;6.80;2.88;;;;;;;;;;7410326;19;19923;-83
2024/02/19 04:43:58;;;;;;;8.27;3.03;;;;;;;;;;7406889;19;19922;-84
2024/02/19 04:46:42;;;;;;;4.65;3.55;;;;;;;;;;7405657;19;19923;-84
2024/02/19 04:49:31;;;;;;;4.93;2.50;;;;;;;;;;7406277;19;19914;-84
2024/02/19 04:52:16;;;;;;;5.28;2.45;;;;;;;;;;7407588;19;19926;-84
2024/02/19 04:55:03;;;;;;;5.05;2.53;;;;;;;;;;7409444;19;19923;-84
2024/02/19 04:57:50;;;;;;;4.38;2.33;;;;;;;;;;7411523;19;19945;-82
2024/02/19 05:00:37;;;;;;;4.68;2.63;;;;;;;;;;7412452;19;19944;-82
2024/02/19 05:03:21;;;;;;;3.53;2.47;;;;;;;;;;7416048;19;19910;-83
2024/02/19 05:06:05;;;;;;;3.05;2.00;;;;;;;;;;7413638;19;19919;-82
2024/02/19 05:08:52;;;;;;;4.03;2.30;;;;;;;;;;7411666;19;20380;-82
2024/02/19 05:11:39;;;;;;;4.50;1.90;;;;;;;;;;7412561;19;19951;-82
2024/02/19 05:14:28;;;;;;;6.90;2.33;;;;;;;;;;7415065;19;20002;-82
2024/02/19 05:17:14;;;;;;;5.28;1.83;;;;;;;;;;7412618;19;19926;-82
2024/02/19 05:20:02;;;;;;;4.53;2.08;;;;;;;;;;7413363;19;19919;-82
2024/02/19 05:22:50;;;;;;;3.67;1.90;;;;;;;;;;7410893;19;19923;-82
2024/02/19 05:25:37;;;;;;;3.03;1.83;;;;;;;;;;7413704;19;20333;-82
2024/02/19 05:28:21;;;;;;;4.13;1.70;;;;;;;;;;7411805;19;20276;-82
2024/02/19 05:31:08;;;;;;;6.15;1.88;;;;;;;;;;7413456;19;19918;-81
2024/02/19 05:33:57;;;;;;;4.05;1.65;;;;;;;;;;7417411;19;19947;-81
2024/02/19 05:36:46;;;;;;;4.18;1.58;;;;;;;;;;7417189;19;19922;-81
2024/02/19 05:39:34;;;;;;;3.72;1.40;;;;;;;;;;7415113;19;19919;-81
2024/02/19 05:42:23;;;;;;;4.25;1.52;;;;;;;;;;7414420;19;19935;-80
2024/02/19 05:45:08;;;;;;;2.00;1.20;;;;;;;;;;7416547;19;19919;-80
2024/02/19 05:47:57;;;;;;;3.70;1.38;;;;;;;;;;7413792;19;19951;-81
2024/02/19 05:50:41;;;;;;;2.28;1.20;;;;;;;;;;7413168;19;19949;-81
2024/02/19 05:53:26;;;;;;;3.08;1.50;;;;;;;;;;7413410;19;19928;-81
2024/02/19 05:56:12;;;;;;;1.85;0.90;;;;;;;;;;7413113;19;19925;-81
2024/02/19 05:59:01;;;;;;;2.40;1.15;;;;;;;;;;7415771;19;19922;-80
2024/02/19 06:01:49;;;;;;;1.95;0.90;;;;;;;;;;7413143;19;19918;-81
2024/02/19 06:04:38;;;;;;;2.92;1.05;;;;;;;;;;7417501;19;19914;-81
2024/02/19 06:07:24;;;;;;;2.45;1.00;;;;;;;;;;7414807;19;19918;-81
2024/02/19 06:10:10;;;;;;;1.80;0.90;;;;;;;;;;7418585;19;19936;-81
2024/02/19 06:12:55;;;;;;;1.35;1.00;;;;;;;;;;7420682;19;19932;-81
2024/02/19 06:15:42;;;;;;;3.42;1.15;;;;;;;;;;7421712;19;19937;-81
2024/02/19 06:18:26;;;;;;;2.03;0.93;;;;;;;;;;7421224;19;19911;-80
2024/02/19 06:21:13;;;;;;;2.30;0.98;;;;;;;;;;7420367;19;19976;-80
2024/02/19 06:24:00;;;;;;;2.55;0.77;;;;;;;;;;7420807;19;19923;-80
2024/02/19 06:26:46;;;;;;;2.95;1.10;;;;;;;;;;7420203;19;19925;-80
2024/02/19 06:29:34;;;;;;;5.82;1.10;;;;;;;;;;7420687;19;19930;-80
2024/02/19 06:32:18;;;;;;;2.55;1.02;;;;;;;;;;7421845;19;19941;-80
2024/02/19 06:35:03;;;;;;;1.67;0.80;;;;;;;;;;7420103;19;20477;-80
2024/02/19 06:37:53;;;;;;;6.93;1.02;;;;;;;;;;7420053;19;19914;-80
2024/02/19 06:40:39;;;;;;;3.47;1.05;;;;;;;;;;7443661;19;19951;-80
2024/02/19 06:43:25;;;;;;;2.85;0.88;;;;;;;;;;7431531;19;19926;-80
2024/02/19 06:46:09;;;;;;;4.78;1.30;;;;;;;;;;7420798;19;19954;-80
2024/02/19 06:48:58;;;;;;;2.63;0.90;;;;;;;;;;7421396;19;19917;-80
2024/02/19 06:51:47;;;;;;;1.33;0.68;;;;;;;;;;7420221;19;19941;-80
2024/02/19 06:54:34;;;;;;;2.17;1.00;;;;;;;;;;7422067;19;19923;-80
2024/02/19 06:57:19;;;;;;;1.77;0.90;;;;;;;;;;7420467;19;19930;-80
2024/02/19 07:00:11;;;;;;;2.67;0.80;;;;;;;;;;7420527;19;19918;-80
2024/02/19 07:02:57;;;;;;;3.95;1.00;;;;;;;;;;7420616;19;19925;-81
2024/02/19 07:05:44;;;;;;;2.55;0.98;;;;;;;;;;7419463;19;19915;-81
2024/02/19 07:08:28;;;;;;;4.10;0.90;;;;;;;;;;7420475;19;19979;-81
2024/02/19 07:11:15;;;;;;;2.65;0.85;;;;;;;;;;7418591;19;19962;-81
2024/02/19 07:14:04;;;;;;;0.93;0.73;;;;;;;;;;7420540;19;19934;-81
2024/02/19 07:16:51;;;;;;;1.98;0.65;;;;;;;;;;7418621;19;19926;-81
2024/02/19 07:19:35;;;;;;;0.90;0.50;;;;;;;;;;7420185;19;20397;-81
2024/02/19 07:22:19;;;;;;;2.05;0.52;;;;;;;;;;7420514;19;19923;-81
2024/02/19 07:25:06;;;;;;;0.95;0.50;;;;;;;;;;7421016;19;19918;-81
2024/02/19 07:27:53;;;;;;;3.92;0.55;;;;;;;;;;7439980;19;19918;-81
2024/02/19 07:30:38;;;;;;;1.00;0.38;;;;;;;;;;7440201;19;19914;-81
2024/02/19 07:33:24;;;;;;;1.15;0.40;;;;;;;;;;7445227;19;19910;-81
2024/02/19 07:36:15;;;;;;;1.85;0.60;;;;;;;;;;7417153;19;20248;-81
2024/02/19 07:39:01;;;;;;;3.05;0.68;;;;;;;;;;7410111;19;20392;-81
2024/02/19 07:41:46;;;;;;;2.15;0.50;;;;;;;;;;7409550;19;19910;-80
2024/02/19 07:44:36;;;;;;;3.00;0.52;;;;;;;;;;7410650;19;19978;-80
2024/02/19 07:47:25;;;;;;;3.10;0.80;;;;;;;;;;7409946;19;19918;-80
2024/02/19 07:50:10;;;;;;;1.05;0.47;;;;;;;;;;7407166;19;19919;-81
2024/02/19 07:52:57;;;;;;;4.10;0.73;;;;;;;;;;7410250;19;20277;-81
2024/02/19 07:55:43;;;;;;;2.60;0.82;;;;;;;;;;7409369;19;19911;-81
2024/02/19 07:58:28;;;;;;;1.75;0.50;;;;;;;;;;7410092;19;19989;-81
2024/02/19 08:01:19;;;;;;;2.17;0.50;;;;;;;;;;7409314;19;19970;-81
2024/02/19 08:04:06;;;;;;;2.90;0.93;;;;;;;;;;7411495;19;20024;-81
2024/02/19 08:06:51;;;;;;;2.45;0.70;;;;;;;;;;7410519;19;19922;-81
2024/02/19 08:09:35;;;;;;;1.73;0.73;;;;;;;;;;7408955;19;19940;-81
2024/02/19 08:12:20;;;;;;;0.80;0.60;;;;;;;;;;7413693;19;19928;-81
2024/02/19 08:15:05;;;;;;;2.45;0.40;;;;;;;;;;7423032;19;19925;-81
2024/02/19 08:17:54;;;;;;;5.03;0.70;;;;;;;;;;7424294;19;20293;-81
2024/02/19 08:20:40;;;;;;;4.07;0.80;;;;;;;;;;7422991;19;19919;-81
2024/02/19 08:23:28;;;;;;;3.83;0.50;;;;;;;;;;7423589;19;19930;-81
2024/02/19 08:26:14;;;;;;;2.25;0.60;;;;;;;;;;7422099;19;19922;-81
2024/02/19 08:29:03;;;;;;;1.45;0.50;;;;;;;;;;7421134;19;19914;-81
2024/02/19 08:31:48;;;;;;;3.78;0.70;;;;;;;;;;7420522;19;20315;-81
2024/02/19 08:34:39;;;;;;;3.47;0.63;;;;;;;;;;7419144;19;19926;-81
2024/02/19 08:37:23;;;;;;;2.97;0.80;;;;;;;;;;7417710;19;19926;-80
2024/02/19 08:40:11;;;;;;;2.10;0.63;;;;;;;;;;7415668;19;19937;-80
2024/02/19 08:42:55;;;;;;;4.47;0.43;;;;;;;;;;7415838;19;20254;-81
2024/02/19 08:45:42;;;;;;;2.10;0.70;;;;;;;;;;7416899;19;19922;-81
2024/02/19 08:48:26;;;;;;;1.30;0.60;;;;;;;;;;7419046;19;20006;-81
2024/02/19 08:51:15;;;;;;;2.67;0.52;;;;;;;;;;7417365;19;19915;-80
2024/02/19 08:54:02;;;;;;;1.45;0.52;;;;;;;;;;7428823;19;19921;-80
2024/02/19 08:56:48;;;;;;;1.73;0.30;;;;;;;;;;7432845;19;19937;-80
2024/02/19 08:59:35;;;;;;;2.08;0.20;;;;;;;;;;7415969;19;19915;-80
2024/02/19 09:02:21;;;;;;;1.42;0.30;;;;;;;;;;7415859;19;19918;-80
2024/02/19 09:05:11;;;;;;;5.95;0.40;;;;;;;;;;7417676;19;19914;-80
2024/02/19 09:08:03;;;;;;;1.70;0.30;;;;;;;;;;7416436;19;19950;-80
2024/02/19 09:10:50;;;;;;;1.05;0.30;;;;;;;;;;7414788;19;19923;-80
2024/02/19 09:13:39;;;;;;;3.50;0.40;;;;;;;;;;7417659;19;19915;-80
2024/02/19 09:16:26;;;;;;;1.58;0.30;;;;;;;;;;7414692;19;19922;-80
2024/02/19 09:19:10;;;;;;;0.30;0.15;;;;;;;;;;7415922;19;19922;-80
2024/02/19 09:21:54;;;;;;;0.10;0.10;;;;;;;;;;7413359;19;19910;-80
2024/02/19 09:24:44;;;;;;;0.50;0.25;;;;;;;;;;7416169;19;19914;-80
2024/02/19 09:27:33;;;;;;;0.70;0.40;;;;;;;;;;7414902;19;19919;-80
2024/02/19 09:30:20;;;;;;;1.60;0.40;;;;;;;;;;7413999;19;19910;-80
2024/02/19 09:33:07;;;;;;;1.23;0.70;;;;;;;;;;7413028;19;19937;-81
2024/02/19 09:35:52;;;;;;;1.20;0.25;;;;;;;;;;7415311;19;20008;-81
2024/02/19 09:38:38;;;;;;;0.70;0.35;;;;;;;;;;7413382;19;19911;-81
2024/02/19 09:41:29;;;;;;;2.22;0.60;;;;;;;;;;7415147;19;19942;-81
2024/02/19 09:44:15;;;;;;;1.42;0.50;;;;;;;;;;7420540;19;19911;-81
2024/02/19 09:47:07;;;;;;;3.03;0.43;;;;;;;;;;7419257;19;19922;-85
2024/02/19 09:49:54;;;;;;;1.48;0.60;;;;;;;;;;7417568;19;19939;-85
2024/02/19 09:52:38;;;;;;;0.52;0.30;;;;;;;;;;7421194;19;19930;-85
2024/02/19 09:55:25;;;;;;;3.15;0.77;;;;;;;;;;7423312;19;20328;-85
2024/02/19 09:58:12;;;;;;;3.47;0.70;;;;;;;;;;7418978;19;19972;-85
2024/02/19 10:00:59;;;;;;;0.90;0.55;;;;;;;;;;7423302;19;19919;-85
2024/02/19 10:03:47;;;;;;;3.38;0.95;;;;;;;;;;7421549;19;20586;-85
2024/02/19 10:06:36;;;;;;;2.92;0.85;;;;;;;;;;7418457;19;19922;-84
2024/02/19 10:09:20;;;;;;;1.08;0.85;;;;;;;;;;7417546;19;19915;-84
2024/02/19 10:12:08;;;;;;;1.80;0.50;;;;;;;;;;7417090;19;19918;-84
2024/02/19 10:14:55;;;;;;;1.63;0.60;;;;;;;;;;7417676;19;20254;-84
2024/02/19 10:17:42;;;;;;;3.42;0.77;;;;;;;;;;7417891;19;19925;-84
2024/02/19 10:20:28;;;;;;;1.63;0.50;;;;;;;;;;7414813;19;19943;-84
2024/02/19 10:23:15;;;;;;;2.10;0.68;;;;;;;;;;7415275;19;20265;-84
2024/02/19 10:26:04;;;;;;;;;;;;;;;;;;7418701;19;19910;-84
2024/02/19 10:28:54;;;;;;;1.05;0.50;;;;;;;;;;7419910;19;20362;-84
2024/02/19 10:31:43;;;;;;;0.63;0.52;;;;;;;;;;7413744;19;20271;-84
2024/02/19 10:34:30;;;;;;;1.27;0.30;;;;;;;;;;7416311;19;19926;-84
2024/02/19 10:37:14;;;;;;;2.58;0.50;;;;;;;;;;7414307;19;19968;-84
2024/02/19 10:40:00;;;;;;;1.60;0.45;;;;;;;;;;7415348;19;20279;-84
2024/02/19 10:42:51;;;;;;;3.00;0.50;;;;;;;;;;7417760;19;19996;-83
2024/02/19 10:45:35;;;;;;;1.05;0.60;;;;;;;;;;7415785;19;19978;-83
2024/02/19 10:48:25;;;;;;;1.77;0.73;;;;;;;;;;7414258;19;19936;-83
2024/02/19 10:51:10;;;;;;;1.95;0.77;;;;;;;;;;7412027;19;19918;-84
2024/02/19 10:54:00;;;;;;;1.45;0.63;;;;;;;;;;7417099;19;20503;-84
2024/02/19 10:56:47;;;;;;;1.85;0.65;;;;;;;;;;7414883;19;20331;-84
2024/02/19 10:59:38;;;;;;;1.60;0.60;;;;;;;;;;7417545;19;19939;-84
2024/02/19 11:02:26;;;;;;;0.65;0.38;;;;;;;;;;7421629;19;20255;-84
2024/02/19 11:05:14;;;;;;;2.60;0.43;;;;;;;;;;7420586;19;19910;-84
2024/02/19 11:08:01;;;;;;;1.27;0.35;;;;;;;;;;7413417;19;19914;-84
2024/02/19 11:10:49;;;;;;;2.80;0.50;;;;;;;;;;7414832;19;19918;-84
2024/02/19 11:13:38;;;;;;;0.45;0.40;;;;;;;;;;7413952;19;19910;-84
2024/02/19 11:16:28;;;;;;;0.75;0.38;;;;;;;;;;7416536;19;19926;-84
2024/02/19 11:19:12;;;;;;;1.60;0.50;;;;;;;;;;7415446;19;19930;-84
2024/02/19 11:22:08;;;;;;;0.98;0.40;;;;;;;;;;7415432;19;19921;-84
2024/02/19 11:24:55;;;;;;;1.90;0.50;;;;;;;;;;7415645;19;19919;-84
2024/02/19 11:27:41;;;;;;;0.57;0.50;;;;;;;;;;7433334;19;19910;-84
2024/02/19 11:30:26;;;;;;;1.63;0.40;;;;;;;;;;7416099;19;19957;-84
2024/02/19 11:33:12;;;;;;;2.55;0.57;;;;;;;;;;7417634;19;19927;-84
2024/02/19 11:35:58;;;;;;;1.15;0.50;;;;;;;;;;7415764;19;19962;-84
2024/02/19 11:38:45;;;;;;;2.67;0.60;;;;;;;;;;7415572;19;19914;-84
2024/02/19 11:41:29;;;;;;;3.40;0.52;;;;;;;;;;7412899;19;19919;-84
2024/02/19 11:44:23;;;;;;;2.25;0.60;;;;;;;;;;7415205;19;19922;-84
2024/02/19 11:47:13;;;;;;;2.58;1.67;;;;;;;;;;7416017;19;20093;-84
2024/02/19 11:49:59;;;;;;;1.95;0.80;;;;;;;;;;7414884;19;19914;-84
2024/02/19 11:52:47;;;;;;;2.03;0.63;;;;;;;;;;7414649;19;20326;-84
2024/02/19 11:55:38;;;;;;;1.13;0.60;;;;;;;;;;7413197;19;19914;-84
2024/02/19 11:58:23;;;;;;;1.95;0.65;;;;;;;;;;7414408;19;19915;-84
2024/02/19 12:01:07;;;;;;;1.60;0.60;;;;;;;;;;7413148;19;20376;-84
2024/02/19 12:03:56;;;;;;;1.00;0.55;;;;;;;;;;7413643;19;19919;-84
2024/02/19 12:06:41;;;;;;;1.75;0.60;;;;;;;;;;7412893;19;19947;-84
2024/02/19 12:09:25;;;;;;;4.20;1.40;;;;;;;;;;7412771;19;19923;-84
2024/02/19 12:12:17;;;;;;;4.05;1.08;;;;;;;;;;7412599;19;19914;-84
2024/02/19 12:15:01;;;;;;;2.83;1.05;;;;;;;;;;7415621;19;19918;-84
2024/02/19 12:17:52;;;;;;;2.83;1.08;;;;;;;;;;7413057;19;19915;-84
2024/02/19 12:20:39;;;;;;;4.32;0.77;;;;;;;;;;7414307;19;19918;-84
2024/02/19 12:23:28;;;;;;;2.00;0.85;;;;;;;;;;7413406;19;19922;-84
2024/02/19 12:26:13;;;;;;;2.40;0.70;;;;;;;;;;7411729;19;19918;-84
2024/02/19 12:29:03;;;;;;;2.75;0.50;;;;;;;;;;7413264;19;19947;-84
2024/02/19 12:31:48;;;;;;;2.63;0.55;;;;;;;;;;7410143;19;19914;-84
2024/02/19 12:34:33;;;;;;;2.40;0.82;;;;;;;;;;7413707;19;19926;-84
2024/02/19 12:37:20;;;;;;;3.95;0.80;;;;;;;;;;7411440;19;19922;-84
2024/02/19 12:40:13;;;;;;;1.90;0.63;;;;;;;;;;7412767;19;19907;-84
2024/02/19 12:42:57;;;;;;;2.33;0.93;;;;;;;;;;7413831;19;19919;-84
2024/02/19 12:45:46;;;;;;;1.80;0.80;;;;;;;;;;7414184;19;20256;-84
2024/02/19 12:48:35;;;;;;;4.05;0.80;;;;;;;;;;7413676;19;19927;-84
2024/02/19 12:51:22;;;;;;;1.65;0.60;;;;;;;;;;7410335;19;19934;-84
2024/02/19 12:54:06;;;;;;;6.88;1.20;;;;;;;;;;7413874;19;19929;-84
2024/02/19 12:56:53;;;;;;;4.97;1.05;;;;;;;;;;7414627;19;19913;-84
2024/02/19 12:59:40;;;;;;;2.15;0.80;;;;;;;;;;7412805;19;19944;-84
2024/02/19 13:02:30;;;;;;;4.25;0.82;;;;;;;;;;7413346;19;19910;-84
2024/02/19 13:05:17;;;;;;;1.67;0.90;;;;;;;;;;7411787;19;19914;-84
2024/02/19 13:08:03;;;;;;;1.40;0.95;;;;;;;;;;7411498;19;19919;-84
2024/02/19 13:10:49;;;;;;;4.53;1.13;;;;;;;;;;7407457;19;19915;-84
2024/02/19 13:13:36;;;;;;;2.97;0.90;;;;;;;;;;7414907;19;20263;-84
2024/02/19 13:16:23;;;;;;;3.63;0.85;;;;;;;;;;7414594;19;19918;-84
2024/02/19 13:19:13;;;;;;;5.32;1.27;;;;;;;;;;7420509;19;19974;-84
2024/02/19 13:21:58;;;;;;;6.80;1.20;;;;;;;;;;7416005;19;19966;-84
2024/02/19 13:24:42;;;;;;;5.47;1.10;;;;;;;;;;7416584;19;19947;-84
2024/02/19 13:27:31;;;;;;;2.60;1.17;;;;;;;;;;7415088;19;19910;-84
2024/02/19 13:30:18;;;;;;;6.70;1.45;;;;;;;;;;7417971;19;19910;-84
2024/02/19 13:33:07;;;;;;;5.28;1.50;;;;;;;;;;7420547;19;19927;-84
2024/02/19 13:35:55;;;;;;;4.35;1.67;;;;;;;;;;7418840;19;19914;-84
2024/02/19 13:38:43;;;;;;;4.32;1.70;;;;;;;;;;7419671;19;19974;-84
2024/02/19 13:41:27;;;;;;;8.57;1.60;;;;;;;;;;7415949;19;19953;-84
2024/02/19 13:44:12;;;;;;;5.03;1.52;;;;;;;;;;7418026;19;19918;-84
2024/02/19 13:47:00;;;;;;;5.10;2.08;;;;;;;;;;7411400;19;20294;-84
2024/02/19 13:49:45;;;;;;;5.60;1.70;;;;;;;;;;7413143;19;19922;-84
2024/02/19 13:52:34;;;;;;;8.40;1.90;;;;;;;;;;7412920;19;20575;-84
2024/02/19 13:55:21;;;;;;;6.85;1.95;;;;;;;;;;7419192;19;20264;-84
2024/02/19 14:01:32;;;;;;;6.00;1.83;;;;;;;;;;7416391;19;19934;-84
2024/02/19 14:04:19;;;;;;;4.53;2.00;;;;;;;;;;7416265;19;20332;-84
2024/02/19 14:07:03;;;;;;;4.20;2.38;;;;;;;;;;7414708;19;19934;-84
2024/02/19 14:09:52;;;;;;;5.68;2.60;;;;;;;;;;7413832;19;19997;-84
2024/02/19 14:12:39;;;;;;;5.13;2.17;;;;;;;;;;7415127;19;19918;-84
2024/02/19 14:15:26;;;;;;;6.80;2.40;;;;;;;;;;7416696;19;19915;-84
2024/02/19 14:18:15;;;;;;;6.47;2.47;;;;;;;;;;7415174;19;19911;-84
2024/02/19 14:21:00;;;;;;;6.88;2.40;;;;;;;;;;7417884;19;19922;-84
2024/02/19 14:23:47;;;;;;;9.05;2.58;;;;;;;;;;7416047;19;19929;-84
2024/02/19 14:26:34;;;;;;;6.80;2.40;;;;;;;;;;7415541;19;19915;-84
2024/02/19 14:29:22;;;;;;;12.95;2.47;;;;;;;;;;7414392;19;19914;-84
2024/02/19 14:32:07;;;;;;;12.43;3.15;;;;;;;;;;7414743;19;19918;-84
2024/02/19 14:34:56;;;;;;;8.75;2.75;;;;;;;;;;7415713;19;19918;-84
2024/02/19 14:37:44;;;;;;;8.75;2.60;;;;;;;;;;7414538;19;19922;-84
2024/02/19 14:40:33;;;;;;;7.35;2.20;;;;;;;;;;7417728;19;19939;-84
2024/02/19 14:43:29;;;;;;;6.82;2.50;;;;;;;;;;7417141;19;19922;-84
2024/02/19 14:46:14;;;;;;;11.68;2.50;;;;;;;;;;7414102;19;19930;-84
2024/02/19 14:49:00;;;;;;;10.55;2.17;;;;;;;;;;7416777;19;19918;-84
2024/02/19 14:51:45;;;;;;;6.40;2.17;;;;;;;;;;7411555;19;19914;-84
2024/02/19 14:54:29;;;;;;;5.63;2.00;;;;;;;;;;7416356;19;19926;-84
2024/02/19 14:57:13;;;;;;;8.50;2.45;;;;;;;;;;7414620;19;19943;-84
2024/02/19 15:00:01;;;;;;;7.13;2.17;;;;;;;;;;7415453;19;19937;-84
2024/02/19 15:02:51;;;;;;;8.07;2.25;;;;;;;;;;7414325;19;19955;-84
2024/02/19 15:05:43;;;;;;;9.02;2.63;;;;;;;;;;7416571;19;19930;-83
2024/02/19 15:08:32;;;;;;;7.40;2.58;;;;;;;;;;7415688;19;19921;-84
2024/02/19 15:11:28;;;;;;;10.50;3.00;;;;;;;;;;7415525;19;19935;-84
2024/02/19 15:14:13;;;;;;;6.45;2.45;;;;;;;;;;7417380;19;19964;-84
2024/02/19 15:17:00;;;;;;;5.45;2.20;;;;;;;;;;7414645;19;19921;-84
2024/02/19 15:19:49;;;;;;;5.72;2.35;;;;;;;;;;7414383;19;19918;-84
2024/02/19 15:22:36;;;;;;;10.73;2.92;;;;;;;;;;7414811;19;19923;-84
2024/02/19 15:25:23;;;;;;;7.78;2.95;;;;;;;;;;7414903;19;20249;-84
2024/02/19 15:28:10;;;;;;;4.82;2.75;;;;;;;;;;7413129;19;20313;-84
2024/02/19 15:30:57;;;;;;;5.60;2.72;;;;;;;;;;7412459;19;19926;-84
2024/02/19 15:33:45;;;;;;;7.35;2.70;;;;;;;;;;7416249;19;19950;-84
2024/02/19 15:36:30;;;;;;;5.82;3.08;;;;;;;;;;7415537;19;19983;-84
2024/02/19 15:39:19;;;;;;;4.18;2.35;;;;;;;;;;7412993;19;19931;-84
2024/02/19 15:42:08;;;;;;;6.45;3.05;;;;;;;;;;7415151;19;19974;-84
2024/02/19 15:44:56;;;;;;;7.50;2.88;;;;;;;;;;7416176;19;19914;-84
2024/02/19 15:47:43;;;;;;;7.70;2.83;;;;;;;;;;7414779;19;19914;-82
2024/02/19 15:50:30;;;;;;;6.72;2.88;;;;;;;;;;7414553;19;19925;-82
2024/02/19 15:53:19;;;;;;;10.88;2.70;;;;;;;;;;7414755;19;19922;-82
2024/02/19 15:56:05;;;;;;;8.07;2.60;;;;;;;;;;7412274;19;19986;-82
2024/02/19 15:58:50;;;;;;;4.43;2.50;;;;;;;;;;7412763;19;19919;-81
2024/02/19 16:01:37;;;;;;;5.95;2.78;;;;;;;;;;7410236;19;19914;-82
2024/02/19 16:04:26;;;;;;;4.80;2.15;;;;;;;;;;7414286;19;19918;-82
2024/02/19 16:07:14;;;;;;;7.85;2.67;;;;;;;;;;7411158;19;19967;-80
2024/02/19 16:09:58;;;;;;;6.95;2.97;;;;;;;;;;7411987;19;19910;-81
2024/02/19 16:12:47;;;;;;;5.53;2.70;;;;;;;;;;7410999;19;19925;-80
2024/02/19 16:15:36;;;;;;;6.85;2.53;;;;;;;;;;7413744;19;19994;-80
2024/02/19 16:18:21;;;;;;;10.63;2.72;;;;;;;;;;7409759;19;19994;-80
2024/02/19 16:21:08;;;;;;;5.07;2.70;;;;;;;;;;7410732;19;20252;-80
2024/02/19 16:23:58;;;;;;;5.15;2.50;;;;;;;;;;7411718;19;19929;-81
2024/02/19 16:26:43;;;;;;;7.85;2.35;;;;;;;;;;7412651;19;20312;-81
2024/02/19 16:29:28;;;;;;;5.00;2.72;;;;;;;;;;7411682;19;19918;-81
2024/02/19 16:32:17;;;;;;;6.55;2.50;;;;;;;;;;7409219;19;19923;-81
2024/02/19 16:35:06;;;;;;;10.10;3.15;;;;;;;;;;7411028;19;19944;-81
2024/02/19 16:37:51;;;;;;;8.57;2.97;;;;;;;;;;7410101;19;19986;-81
2024/02/19 16:40:39;;;;;;;7.07;2.50;;;;;;;;;;7413769;19;20326;-80
2024/02/19 16:43:26;;;;;;;6.95;3.00;;;;;;;;;;7410467;19;19929;-80